Map

Track Data

SID SEASON NUMBER BASIN SUBBASIN NAME ISO_TIME NATURE LAT LON WMO_WIND WMO_PRES WMO_AGENCY TRACK_TYPE DIST2LAND LANDFALL IFLAG USA_AGENCY USA_ATCF_ID USA_LAT USA_LON USA_RECORD USA_STATUS USA_WIND USA_PRES USA_SSHS USA_R34_NE USA_R34_SE USA_R34_SW USA_R34_NW USA_R50_NE USA_R50_SE USA_R50_SW USA_R50_NW USA_R64_NE USA_R64_SE USA_R64_SW USA_R64_NW USA_POCI USA_ROCI USA_RMW USA_EYE TOKYO_LAT TOKYO_LON TOKYO_GRADE TOKYO_WIND TOKYO_PRES TOKYO_R50_DIR TOKYO_R50_LONG TOKYO_R50_SHORT TOKYO_R30_DIR TOKYO_R30_LONG TOKYO_R30_SHORT TOKYO_LAND CMA_LAT CMA_LON CMA_CAT CMA_WIND CMA_PRES HKO_LAT HKO_LON HKO_CAT HKO_WIND HKO_PRES NEWDELHI_LAT NEWDELHI_LON NEWDELHI_GRADE NEWDELHI_WIND NEWDELHI_PRES NEWDELHI_CI NEWDELHI_DP NEWDELHI_POCI REUNION_LAT REUNION_LON REUNION_TYPE REUNION_WIND REUNION_PRES REUNION_TNUM REUNION_CI REUNION_RMW REUNION_R34_NE REUNION_R34_SE REUNION_R34_SW REUNION_R34_NW REUNION_R50_NE REUNION_R50_SE REUNION_R50_SW REUNION_R50_NW REUNION_R64_NE REUNION_R64_SE REUNION_R64_SW REUNION_R64_NW BOM_LAT BOM_LON BOM_TYPE BOM_WIND BOM_PRES BOM_TNUM BOM_CI BOM_RMW BOM_R34_NE BOM_R34_SE BOM_R34_SW BOM_R34_NW BOM_R50_NE BOM_R50_SE BOM_R50_SW BOM_R50_NW BOM_R64_NE BOM_R64_SE BOM_R64_SW BOM_R64_NW BOM_ROCI BOM_POCI BOM_EYE BOM_POS_METHOD BOM_PRES_METHOD NADI_LAT NADI_LON NADI_CAT NADI_WIND NADI_PRES WELLINGTON_LAT WELLINGTON_LON WELLINGTON_WIND WELLINGTON_PRES DS824_LAT DS824_LON DS824_STAGE DS824_WIND DS824_PRES TD9636_LAT TD9636_LON TD9636_STAGE TD9636_WIND TD9636_PRES TD9635_LAT TD9635_LON TD9635_WIND TD9635_PRES TD9635_ROCI NEUMANN_LAT NEUMANN_LON NEUMANN_CLASS NEUMANN_WIND NEUMANN_PRES MLC_LAT MLC_LON MLC_CLASS MLC_WIND MLC_PRES USA_GUST BOM_GUST BOM_GUST_PER REUNION_GUST REUNION_GUST_PER USA_SEAHGT USA_SEARAD_NE USA_SEARAD_SE USA_SEARAD_SW USA_SEARAD_NW STORM_SPEED STORM_DIR
1993105N06165 1993 26 WP MM NOT_NAMED 1993-04-15 06:00:00 NR 6.40000 164.700 main 1704 1695 O_____________ jtwc_wp WP041993 6.40000 164.700 15 -1 5 281
1993105N06165 1993 26 WP MM NOT_NAMED 1993-04-15 09:00:00 NR 6.45002 164.450 main 1706 1691 P_____________ WP041993 6.45002 164.450 15 -1 5 281
1993105N06165 1993 26 WP MM NOT_NAMED 1993-04-15 12:00:00 NR 6.50000 164.200 main 1691 1678 O_____________ jtwc_wp WP041993 6.50000 164.200 15 -1 5 281
1993105N06165 1993 26 WP MM NOT_NAMED 1993-04-15 15:00:00 NR 6.54999 163.950 main 1678 1667 P_____________ WP041993 6.54999 163.950 15 -1 5 281
1993105N06165 1993 26 WP MM NOT_NAMED 1993-04-15 18:00:00 NR 6.60000 163.700 main 1667 1655 O_____________ jtwc_wp WP041993 6.60000 163.700 15 -1 5 281
1993105N06165 1993 26 WP MM NOT_NAMED 1993-04-15 21:00:00 NR 6.64999 163.450 main 1655 1646 P_____________ WP041993 6.64999 163.450 15 -1 5 281
1993105N06165 1993 26 WP MM NOT_NAMED 1993-04-16 00:00:00 NR 6.70000 163.200 main 1646 1634 O_____________ jtwc_wp WP041993 6.70000 163.200 15 -1 5 281
1993105N06165 1993 26 WP MM NOT_NAMED 1993-04-16 03:00:00 NR 6.74999 162.950 main 1634 1625 P_____________ WP041993 6.74999 162.950 15 -1 5 281
1993105N06165 1993 26 WP MM NOT_NAMED 1993-04-16 06:00:00 NR 6.80000 162.700 main 1625 1612 O_____________ jtwc_wp WP041993 6.80000 162.700 15 -1 5 281
1993105N06165 1993 26 WP MM NOT_NAMED 1993-04-16 09:00:00 NR 6.84999 162.450 main 1612 1598 P_____________ WP041993 6.84999 162.450 15 -1 5 281
1993105N06165 1993 26 WP MM NOT_NAMED 1993-04-16 12:00:00 NR 6.90000 162.200 main 1598 1584 O_____________ jtwc_wp WP041993 6.90000 162.200 15 -1 5 282
1993105N06165 1993 26 WP MM NOT_NAMED 1993-04-16 15:00:00 NR 6.95749 161.950 main 1592 1571 P_____________ WP041993 6.95749 161.950 15 -1 5 281
1993105N06165 1993 26 WP MM NOT_NAMED 1993-04-16 18:00:00 NR 7.00000 161.700 main 1571 1557 O_____________ jtwc_wp WP041993 7.00000 161.700 15 -1 5 276
1993105N06165 1993 26 WP MM NOT_NAMED 1993-04-16 21:00:00 NR 7.00747 161.457 main 1557 1537 P_____________ WP041993 7.00747 161.457 15 -1 5 270
1993105N06165 1993 26 WP MM NOT_NAMED 1993-04-17 00:00:00 NR 7.00000 161.200 main 1537 1517 O_____________ jtwc_wp WP041993 7.00000 161.200 15 -1 5 268
1993105N06165 1993 26 WP MM NOT_NAMED 1993-04-17 03:00:00 NR 6.99249 160.907 main 1517 1497 P_____________ WP041993 6.99249 160.907 15 -1 6 270
1993105N06165 1993 26 WP MM NOT_NAMED 1993-04-17 06:00:00 NR 7.00000 160.600 main 1497 1477 O_____________ jtwc_wp WP041993 7.00000 160.600 15 -1 6 275
1993105N06165 1993 26 WP MM NOT_NAMED 1993-04-17 09:00:00 NR 7.04998 160.300 main 1477 1465 P_____________ WP041993 7.04998 160.300 17 -1 6 280
1993105N06165 1993 26 WP MM NOT_NAMED 1993-04-17 12:00:00 NR 7.10000 160.000 main 1465 1445 O_____________ jtwc_wp WP041993 7.10000 160.000 20 -1 6 276
1993105N06165 1993 26 WP MM NOT_NAMED 1993-04-17 15:00:00 NR 7.10748 159.700 main 1445 1426 P_____________ WP041993 7.10748 159.700 20 -1 6 270
1993105N06165 1993 26 WP MM NOT_NAMED 1993-04-17 18:00:00 NR 7.10000 159.400 main 1426 1407 O_____________ jtwc_wp WP041993 7.10000 159.400 20 -1 6 269
1993105N06165 1993 26 WP MM NOT_NAMED 1993-04-17 21:00:00 NR 7.09248 159.100 main 1407 1388 P_____________ WP041993 7.09248 159.100 20 -1 6 270
1993105N06165 1993 26 WP MM NOT_NAMED 1993-04-18 00:00:00 NR 7.10000 158.800 main 1388 1371 O_____________ jtwc_wp WP041993 7.10000 158.800 20 -1 6 273
1993105N06165 1993 26 WP MM NOT_NAMED 1993-04-18 03:00:00 NR 7.12748 158.500 main 1371 1363 P_____________ WP041993 7.12748 158.500 20 -1 6 280
1993105N06165 1993 26 WP MM NOT_NAMED 1993-04-18 06:00:00 NR 7.20000 158.200 main 1363 1355 O_____________ jtwc_wp WP041993 7.20000 158.200 20 -1 6 289
1993105N06165 1993 26 WP MM NOT_NAMED 1993-04-18 09:00:00 NR 7.32747 157.907 main 1355 1353 P_____________ WP041993 7.32747 157.907 20 -1 7 297
1993105N06165 1993 26 WP MM NOT_NAMED 1993-04-18 12:00:00 NR 7.50000 157.600 main 1357 1351 O_____________ jtwc_wp WP041993 7.50000 157.600 20 -1 7 298
1993105N06165 1993 26 WP MM NOT_NAMED 1993-04-18 15:00:00 NR 7.67751 157.250 main 1355 1350 P_____________ WP041993 7.67751 157.250 20 -1 8 300
1993105N06165 1993 26 WP MM NOT_NAMED 1993-04-18 18:00:00 NR 7.90000 156.900 main 1360 1355 O_____________ jtwc_wp WP041993 7.90000 156.900 20 -1 8 308
1993105N06165 1993 26 WP MM NOT_NAMED 1993-04-18 21:00:00 NR 8.18496 156.592 main 1375 1370 P_____________ WP041993 8.18496 156.592 22 -1 8 315
1993105N06165 1993 26 WP MM NOT_NAMED 1993-04-19 00:00:00 NR 8.50000 156.300 main 1390 1390 O_____________ jtwc_wp WP041993 8.50000 156.300 25 -1 8 317
1993105N06165 1993 26 WP MM NOT_NAMED 1993-04-19 03:00:00 NR 8.79996 156.007 main 1407 1407 P_____________ WP041993 8.79996 156.007 25 -1 8 315
1993105N06165 1993 26 WP MM NOT_NAMED 1993-04-19 06:00:00 NR 9.10000 155.700 main 1425 1425 O_____________ jtwc_wp WP041993 9.10000 155.700 25 -1 9 315
1993105N06165 1993 26 WP MM NOT_NAMED 1993-04-19 09:00:00 NR 9.42996 155.365 main 1444 1440 P_____________ WP041993 9.42996 155.365 25 -1 9 311
1993105N06165 1993 26 WP MM NOT_NAMED 1993-04-19 12:00:00 NR 9.70000 155.000 main 1461 1458 O_____________ jtwc_wp WP041993 9.70000 155.000 25 -1 9 299
1993105N06165 1993 26 WP MM NOT_NAMED 1993-04-19 15:00:00 NR 9.84495 154.615 main 1459 1436 P_____________ WP041993 9.84495 154.615 25 -1 8 271
1993105N06165 1993 26 WP MM NOT_NAMED 1993-04-19 18:00:00 TS 9.72000 154.160 main 1436 1426 O_O___________ jtwc_wp WP041993 9.90000 154.200 25 -1 9.00000 154.000 1 23 1008 9 265
1993105N06165 1993 26 WP MM NOT_NAMED 1993-04-19 21:00:00 TS 9.76822 153.715 main 1434 1425 P_P___________ WP041993 9.92244 153.765 25 -1 9.44990 153.653 1 23 1008 9 279
1993105N06165 1993 26 WP MM NOT_NAMED 1993-04-20 00:00:00 TS 9.85714 153.257 main 1436 1425 O_O___________ jtwc_wp WP041993 9.90000 153.300 25 -1 9.80000 153.200 1 23 1008 10 279
1993105N06165 1993 26 WP MM NOT_NAMED 1993-04-20 03:00:00 TS 9.92008 152.700 main 1425 1419 P_P___________ WP041993 9.86496 152.808 25 -1 9.97520 152.592 1 26 1007 11 272
1993105N06165 1993 26 WP MM NOT_NAMED 1993-04-20 06:00:00 TS 9.90000 152.150 main 1419 1414 O_O___________ jtwc_wp WP041993 9.80000 152.300 25 -1 10.0000 152.000 1 29 1006 10 266
1993105N06165 1993 26 WP MM NOT_NAMED 1993-04-20 09:00:00 TS 9.85239 151.703 main 1414 1390 P_P___________ WP041993 9.72996 151.793 25 -1 9.97481 151.613 1 29 1006 9 257
1993105N06165 1993 26 WP MM NOT_NAMED 1993-04-20 12:00:00 TS 9.70000 151.300 main 1390 1345 O_O___________ jtwc_wp WP041993 9.60000 151.300 25 -1 9.80000 151.300 1 29 1006 9 241
1993105N06165 1993 26 WP MM NOT_NAMED 1993-04-20 15:00:00 TS 9.40498 150.885 main 1345 1301 P_P___________ WP041993 9.37996 150.827 25 -1 9.42999 150.942 1 29 1006 10 231
1993105N06165 1993 26 WP MM NOT_NAMED 1993-04-20 18:00:00 TS 9.05000 150.500 main 1301 1260 O_O___________ jtwc_wp WP041993 9.10000 150.400 25 -1 9.00000 150.600 1 29 1006 10 226
1993105N06165 1993 26 WP MM NOT_NAMED 1993-04-20 21:00:00 TS 8.73865 150.179 main 1249 1219 P_P___________ WP041993 8.79992 150.035 25 -1 8.67737 150.323 1 29 1006 9 227
1993105N06165 1993 26 WP MM NOT_NAMED 1993-04-21 00:00:00 TS 8.45000 149.850 main 1219 1175 O_O___________ jtwc_wp WP041993 8.50000 149.700 25 -1 8.40000 150.000 1 29 1006 9 233
1993105N06165 1993 26 WP MM NOT_NAMED 1993-04-21 03:00:00 TS 8.18131 149.421 main 1175 1145 P_P___________ WP041993 8.24249 149.343 25 -1 8.12013 149.500 1 29 1006 10 239
1993105N06165 1993 26 WP MM NOT_NAMED 1993-04-21 06:00:00 TS 7.95000 149.000 main 1145 1118 O_O___________ jtwc_wp WP041993 8.00000 149.000 25 -1 7.90000 149.000 1 29 1006 8 240
1993105N06165 1993 26 WP MM NOT_NAMED 1993-04-21 09:00:00 TS 7.75992 148.689 main 1118 1092 P_P___________ WP041993 7.73495 148.700 25 -1 7.78488 148.678 1 26 1006 7 240
1993105N06165 1993 26 WP MM NOT_NAMED 1993-04-21 12:00:00 TS 7.60000 148.400 main 1092 1078 O_O___________ jtwc_wp WP041993 7.50000 148.400 25 -1 7.70000 148.400 1 23 1006 7 243
1993105N06165 1993 26 WP MM NOT_NAMED 1993-04-21 15:00:00 TS 7.44998 148.061 main 1067 1053 P_P___________ WP041993 7.33497 148.065 25 -1 7.56499 148.058 1 23 1006 8 247
1993105N06165 1993 26 WP MM NOT_NAMED 1993-04-21 18:00:00 TS 7.30000 147.700 main 1053 1030 O_O___________ jtwc_wp WP041993 7.20000 147.700 25 -1 7.40000 147.700 1 23 1006 8 245
1993105N06165 1993 26 WP MM NOT_NAMED 1993-04-21 21:00:00 TS 7.12121 147.336 main 1030 1019 P_P___________ WP041993 7.04996 147.315 25 -1 7.19246 147.357 1 26 1005 8 245
1993105N06165 1993 26 WP MM NOT_NAMED 1993-04-22 00:00:00 TS 6.95000 146.950 main 1019 997 O_O___________ jtwc_wp WP041993 6.90000 146.900 25 -1 7.00000 147.000 1 29 1005 9 249
1993105N06165 1993 26 WP MM NOT_NAMED 1993-04-22 03:00:00 TS 6.81004 146.499 main 997 986 P_P___________ WP041993 6.75000 146.450 25 -1 6.87008 146.548 1 29 1005 9 254
1993105N06165 1993 26 WP MM NOT_NAMED 1993-04-22 06:00:00 TS 6.70000 146.100 main 987 978 O_O___________ jtwc_wp WP041993 6.60000 146.000 25 -1 6.80000 146.200 1 29 1005 6 253
1993105N06165 1993 26 WP MM NOT_NAMED 1993-04-22 09:00:00 TS 6.63242 145.896 main 978 978 P_P___________ WP041993 6.44243 145.600 27 -1 6.82241 146.193 1 29 1005 4 249
1993105N06165 1993 26 WP MM NOT_NAMED 1993-04-22 12:00:00 TS 6.55000 145.700 main 980 960 O_O___________ jtwc_wp WP041993 6.30000 145.200 30 -1 6.80000 146.200 1 29 1005 6 245
1993105N06165 1993 26 WP MM NOT_NAMED 1993-04-22 15:00:00 TS 6.38248 145.345 main 963 946 P_P___________ WP041993 6.19246 144.765 30 -1 6.57249 145.925 1 29 1005 9 246
1993105N06165 1993 26 WP MM NOT_NAMED 1993-04-22 18:00:00 TS 6.20000 144.900 main 949 942 O_O___________ jtwc_wp WP041993 6.10000 144.300 30 -1 6.30000 145.500 1 29 1005 10 251
1993105N06165 1993 26 WP MM NOT_NAMED 1993-04-22 21:00:00 TS 6.05624 144.415 main 950 940 P_P___________ WP041993 5.99247 143.807 30 -1 6.12001 145.023 1 29 1005 11 257
1993105N06165 1993 26 WP MM NOT_NAMED 1993-04-23 00:00:00 TS 5.94286 143.814 main 949 949 O_O___________ jtwc_wp WP041993 5.90000 143.300 30 -1 6.00000 144.500 1 29 1006 12 261
1993105N06165 1993 26 WP MM NOT_NAMED 1993-04-23 03:00:00 TS 5.87332 143.198 main 972 951 P_P___________ WP041993 5.84246 142.800 30 -1 5.93506 143.993 1 26 1006 13 264
1993105N06165 1993 26 WP MM NOT_NAMED 1993-04-23 06:00:00 TS 5.82000 142.540 main 949 908 O_O___________ jtwc_wp WP041993 5.80000 142.300 30 -1 5.90000 143.500 1 23 1006 14 265
1993105N06165 1993 26 WP MM NOT_NAMED 1993-04-23 09:00:00 NR 5.74246 141.800 main 908 887 P_____________ WP041993 5.74246 141.800 30 -1 1 12 264
1993105N06165 1993 26 WP MM NOT_NAMED 1993-04-23 12:00:00 NR 5.70000 141.300 main 887 867 O_____________ jtwc_wp WP041993 5.70000 141.300 30 -1 10 266
1993105N06165 1993 26 WP MM NOT_NAMED 1993-04-23 15:00:00 NR 5.67748 140.792 main 867 850 P_____________ WP041993 5.67748 140.792 30 -1 10 270
1993105N06165 1993 26 WP MM NOT_NAMED 1993-04-23 18:00:00 NR 5.70000 140.300 main 850 842 O_____________ jtwc_wp WP041993 5.70000 140.300 30 -1 10 276
1993105N06165 1993 26 WP MM NOT_NAMED 1993-04-23 21:00:00 NR 5.77746 139.835 main 848 843 P_____________ WP041993 5.77746 139.835 30 -1 9 283
1993105N06165 1993 26 WP MM NOT_NAMED 1993-04-24 00:00:00 NR 5.90000 139.400 main 845 836 O_____________ jtwc_wp WP041993 5.90000 139.400 30 -1 9 288
1993105N06165 1993 26 WP MM NOT_NAMED 1993-04-24 03:00:00 NR 6.04244 139.000 main 836 833 P_____________ WP041993 6.04244 139.000 30 -1 9 291
1993105N06165 1993 26 WP MM NOT_NAMED 1993-04-24 06:00:00 NR 6.20000 138.600 main 839 835 O_____________ jtwc_wp WP041993 6.20000 138.600 30 -1 9 290
1993105N06165 1993 26 WP MM NOT_NAMED 1993-04-24 09:00:00 NR 6.34998 138.157 main 835 835 P_____________ WP041993 6.34998 138.157 30 -1 9 289
1993105N06165 1993 26 WP MM NOT_NAMED 1993-04-24 12:00:00 NR 6.50000 137.700 main 839 836 O_____________ jtwc_wp WP041993 6.50000 137.700 30 -1 10 289
1993105N06165 1993 26 WP MM NOT_NAMED 1993-04-24 15:00:00 NR 6.66494 137.258 main 850 843 P_____________ WP041993 6.66494 137.258 30 -1 9 289
1993105N06165 1993 26 WP MM NOT_NAMED 1993-04-24 18:00:00 NR 6.80000 136.800 main 850 846 O_____________ jtwc_wp WP041993 6.80000 136.800 30 -1 10 282
1993105N06165 1993 26 WP MM NOT_NAMED 1993-04-24 21:00:00 NR 6.86497 136.307 main 855 851 P_____________ WP041993 6.86497 136.307 30 -1 10 276
1993105N06165 1993 26 WP MM NOT_NAMED 1993-04-25 00:00:00 NR 6.90000 135.800 main 851 851 O_____________ jtwc_wp WP041993 6.90000 135.800 30 -1 10 275
1993105N06165 1993 26 WP MM NOT_NAMED 1993-04-25 03:00:00 NR 6.95749 135.285 main 863 843 P_____________ WP041993 6.95749 135.285 30 -1 10 276
1993105N06165 1993 26 WP MM NOT_NAMED 1993-04-25 06:00:00 NR 7.00000 134.800 main 843 808 O_____________ jtwc_wp WP041993 7.00000 134.800 30 -1 9 273
1993105N06165 1993 26 WP MM NOT_NAMED 1993-04-25 09:00:00 NR 7.00743 134.385 main 808 774 P_____________ WP041993 7.00743 134.385 30 -1 8 270
1993105N06165 1993 26 WP MM NOT_NAMED 1993-04-25 12:00:00 NR 7.00000 134.000 main 774 741 O_____________ jtwc_wp WP041993 7.00000 134.000 30 -1 8 269
1993105N06165 1993 26 WP MM NOT_NAMED 1993-04-25 15:00:00 NR 6.99998 133.592 main 741 709 P_____________ WP041993 6.99998 133.592 27 -1 8 270
1993105N06165 1993 26 WP MM NOT_NAMED 1993-04-25 18:00:00 NR 7.00000 133.200 main 709 686 O_____________ jtwc_wp WP041993 7.00000 133.200 25 -1 7 270
1993105N06165 1993 26 WP MM NOT_NAMED 1993-04-25 21:00:00 NR 6.99996 132.842 main 678 652 P_____________ WP041993 6.99996 132.842 25 -1 7 270
1993105N06165 1993 26 WP MM NOT_NAMED 1993-04-26 00:00:00 NR 7.00000 132.500 main 652 619 O_____________ jtwc_wp WP041993 7.00000 132.500 25 -1 7 270
1993105N06165 1993 26 WP MM NOT_NAMED 1993-04-26 03:00:00 NR 6.99997 132.150 main 619 575 P_____________ WP041993 6.99997 132.150 25 -1 7 270
1993105N06165 1993 26 WP MM NOT_NAMED 1993-04-26 06:00:00 NR 7.00000 131.800 main 575 542 O_____________ jtwc_wp WP041993 7.00000 131.800 25 -1 7 270
1993105N06165 1993 26 WP MM NOT_NAMED 1993-04-26 09:00:00 NR 6.99997 131.450 main 542 498 P_____________ WP041993 6.99997 131.450 25 -1 7 270
1993105N06165 1993 26 WP MM NOT_NAMED 1993-04-26 12:00:00 NR 7.00000 131.100 main 498 465 O_____________ jtwc_wp WP041993 7.00000 131.100 25 -1 7 270
1993105N06165 1993 26 WP MM NOT_NAMED 1993-04-26 15:00:00 NR 6.99994 130.765 main 465 421 P_____________ WP041993 6.99994 130.765 25 -1 7 270
1993105N06165 1993 26 WP MM NOT_NAMED 1993-04-26 18:00:00 NR 7.00000 130.400 main 421 376 O_____________ jtwc_wp WP041993 7.00000 130.400 25 -1 8 271
1993105N06165 1993 26 WP MM NOT_NAMED 1993-04-26 21:00:00 NR 7.00750 129.965 main 376 322 P_____________ WP041993 7.00750 129.965 25 -1 9 270
1993105N06165 1993 26 WP MM NOT_NAMED 1993-04-27 00:00:00 NR 7.00000 129.500 main 322 278 O_____________ jtwc_wp WP041993 7.00000 129.500 25 -1 9 267
1993105N06165 1993 26 WP MM NOT_NAMED 1993-04-27 03:00:00 NR 6.96498 129.043 main 267 225 P_____________ WP041993 6.96498 129.043 25 -1 9 264
1993105N06165 1993 26 WP MM NOT_NAMED 1993-04-27 06:00:00 NR 6.90000 128.600 main 225 185 O_____________ jtwc_wp WP041993 6.90000 128.600 25 -1 9 259
1993105N06165 1993 26 WP MM NOT_NAMED 1993-04-27 09:00:00 NR 6.79995 128.192 main 185 147 P_____________ WP041993 6.79995 128.192 22 -1 8 256
1993105N06165 1993 26 WP MM NOT_NAMED 1993-04-27 12:00:00 NR 6.70000 127.800 main 147 109 O_____________ jtwc_wp WP041993 6.70000 127.800 20 -1 8 259
1993105N06165 1993 26 WP MM NOT_NAMED 1993-04-27 15:00:00 NR 6.64245 127.408 main 109 70 P_____________ WP041993 6.64245 127.408 20 -1 8 263
1993105N06165 1993 26 WP MM NOT_NAMED 1993-04-27 18:00:00 NR 6.60000 127.000 main 70 31 O_____________ jtwc_wp WP041993 6.60000 127.000 20 -1 9 263
1993105N06165 1993 26 WP MM NOT_NAMED 1993-04-27 21:00:00 NR 6.54248 126.557 main 40 0 P_____________ WP041993 6.54248 126.557 20 -1 9 264
1993105N06165 1993 26 WP MM NOT_NAMED 1993-04-28 00:00:00 NR 6.50000 126.100 main 0 0 O_____________ jtwc_wp WP041993 6.50000 126.100 20 -1 9 267
1993105N06165 1993 26 WP MM NOT_NAMED 1993-04-28 03:00:00 NR 6.49244 125.658 main 11 0 P_____________ WP041993 6.49244 125.658 20 -1 9 270
1993105N06165 1993 26 WP MM NOT_NAMED 1993-04-28 06:00:00 NR 6.50000 125.200 main 0 0 O_____________ jtwc_wp WP041993 6.50000 125.200 20 -1 9 270
1993105N06165 1993 26 WP MM NOT_NAMED 1993-04-28 09:00:00 NR 6.49997 124.707 main 0 0 P_____________ WP041993 6.49997 124.707 17 -1 10 270
1993105N06165 1993 26 WP MM NOT_NAMED 1993-04-28 12:00:00 NR 6.50000 124.200 main 0 0 O_____________ jtwc_wp WP041993 6.50000 124.200 15 -1 10 270
1993105N06165 1993 26 WP MM NOT_NAMED 1993-04-28 15:00:00 NR 6.50009 123.698 main 44 44 P_____________ WP041993 6.50009 123.698 15 -1 10 270
1993105N06165 1993 26 WP MM NOT_NAMED 1993-04-28 18:00:00 NR 6.50000 123.200 main 94 O_____________ jtwc_wp WP041993 6.50000 123.200 15 -1 10 270

Digital Typhoon Data and Search

About IBTrACS Database

This database is a web-friendly format of International Best Track Archive for Climate Stewardship (IBTrACS), a global best track data archive curated by NOAA dating back to 1842.

Updated: 2021-10-21